Time;durP1;ratioP1;P1;durP2;ratioP2;P2;SDS_P1;SDS_P2;PMS_P1;PMS_P2;Temp;Humidity;BMP_temperature;BMP_pressure;BME280_temperature;BME280_humidity;BME280_pressure;Samples;Min_cycle;Max_cycle;Signal;HPM_P1;HPM_P2
2022/08/07 00:01:41;;;;;;;3.33;1.75;;;15.70;70.90;;;;;;5020496;28;20056;-64
2022/08/07 00:04:07;;;;;;;4.60;1.58;;;15.60;71.20;;;;;;5028096;28;20088;-64
2022/08/07 00:06:32;;;;;;;4.88;1.70;;;15.60;71.30;;;;;;5002231;28;20124;-64
2022/08/07 00:08:58;;;;;;;5.63;2.67;;;15.70;71.10;;;;;;5015680;28;20049;-65
2022/08/07 00:11:24;;;;;;;4.57;3.30;;;15.70;71.30;;;;;;5025532;28;20088;-64
2022/08/07 00:13:50;;;;;;;3.70;2.60;;;15.60;71.40;;;;;;4979032;28;20061;-64
2022/08/07 00:16:15;;;;;;;7.45;2.88;;;15.50;72.40;;;;;;5025488;28;20049;-65
2022/08/07 00:18:41;;;;;;;6.95;3.08;;;15.40;72.10;;;;;;5031286;28;20046;-64
2022/08/07 00:21:08;;;;;;;3.85;2.42;;;15.30;72.90;;;;;;5043229;28;20116;-65
2022/08/07 00:23:35;;;;;;;6.90;2.33;;;15.40;72.10;;;;;;5027069;28;20053;-64
2022/08/07 00:26:01;;;;;;;3.97;2.50;;;15.40;72.00;;;;;;5034748;28;20112;-64
2022/08/07 00:28:28;;;;;;;7.88;3.33;;;15.50;71.70;;;;;;5017756;28;20937;-70
2022/08/07 00:30:54;;;;;;;6.07;3.72;;;15.40;72.50;;;;;;5026890;28;20069;-68
2022/08/07 00:33:25;;;;;;;8.13;3.35;;;15.30;72.60;;;;;;4983545;28;20084;-69
2022/08/07 00:35:52;;;;;;;6.95;4.75;;;15.20;73.00;;;;;;5016565;28;20108;-69
2022/08/07 00:38:17;;;;;;;8.45;4.43;;;15.20;73.00;;;;;;5022089;28;20083;-69
2022/08/07 00:40:43;;;;;;;6.40;5.00;;;15.20;73.20;;;;;;4997757;28;20048;-69
2022/08/07 00:43:09;;;;;;;6.40;4.70;;;15.20;72.90;;;;;;5030749;28;20040;-69
2022/08/07 00:45:35;;;;;;;6.18;4.55;;;15.20;73.10;;;;;;5035939;28;20454;-69
2022/08/07 00:48:01;;;;;;;8.20;5.15;;;15.10;73.60;;;;;;5027480;28;20053;-68
2022/08/07 00:50:27;;;;;;;5.95;3.30;;;15.00;74.20;;;;;;5032361;28;20044;-68
2022/08/07 00:52:52;;;;;;;4.32;2.80;;;15.00;73.90;;;;;;5022512;28;20128;-68
2022/08/07 00:55:18;;;;;;;3.20;1.60;;;15.10;73.50;;;;;;5065436;28;20102;-68
2022/08/07 00:57:44;;;;;;;5.57;1.50;;;15.10;73.30;;;;;;5028341;28;20056;-68
2022/08/07 01:00:10;;;;;;;3.08;1.50;;;15.10;73.60;;;;;;5015506;28;20056;-68
2022/08/07 01:02:36;;;;;;;2.47;1.30;;;15.00;73.30;;;;;;5017034;28;20467;-68
2022/08/07 01:05:05;;;;;;;3.60;1.17;;;15.00;73.40;;;;;;5000370;28;20054;-68
2022/08/07 01:07:31;;;;;;;2.47;1.27;;;15.00;73.90;;;;;;5000864;28;20068;-68
2022/08/07 01:09:57;;;;;;;6.47;1.30;;;14.90;74.70;;;;;;5029193;28;20359;-69
2022/08/07 01:12:22;;;;;;;3.72;1.20;;;14.90;75.50;;;;;;5024472;28;20049;-69
2022/08/07 01:14:48;;;;;;;3.35;1.30;;;14.80;75.10;;;;;;5034253;28;20371;-68
2022/08/07 01:17:14;;;;;;;3.28;1.25;;;14.70;76.10;;;;;;5029677;28;20050;-68
2022/08/07 01:19:39;;;;;;;3.40;1.30;;;14.70;76.00;;;;;;5014357;28;20539;-69
2022/08/07 01:22:05;;;;;;;3.75;1.27;;;14.70;76.10;;;;;;5017500;28;20055;-69
2022/08/07 01:24:31;;;;;;;3.10;1.30;;;14.80;75.30;;;;;;5009007;28;20656;-68
2022/08/07 01:26:57;;;;;;;3.67;1.10;;;14.80;74.90;;;;;;5026205;28;20048;-68
2022/08/07 01:29:25;;;;;;;4.45;1.40;;;14.80;74.80;;;;;;5017821;28;20052;-69
2022/08/07 01:31:51;;;;;;;2.70;1.42;;;14.80;75.00;;;;;;5024316;28;20073;-68
2022/08/07 01:34:17;;;;;;;2.92;1.40;;;14.70;75.80;;;;;;5012875;28;20073;-70
2022/08/07 01:36:43;;;;;;;4.88;1.40;;;14.70;76.60;;;;;;5000810;28;20046;-69
2022/08/07 01:39:09;;;;;;;2.95;1.13;;;14.70;75.70;;;;;;5012177;28;20885;-69
2022/08/07 01:41:35;;;;;;;3.50;1.20;;;14.80;75.40;;;;;;5032363;28;20044;-69
2022/08/07 01:44:01;;;;;;;2.90;1.20;;;14.70;75.90;;;;;;5017892;28;20542;-69
2022/08/07 01:46:27;;;;;;;6.82;2.10;;;14.70;75.50;;;;;;5035052;28;20262;-70
2022/08/07 01:48:52;;;;;;;3.45;1.50;;;14.70;76.30;;;;;;5028714;28;20082;-69
2022/08/07 01:51:20;;;;;;;4.20;1.42;;;14.60;76.30;;;;;;5019456;28;20561;-68
2022/08/07 01:53:48;;;;;;;2.30;1.23;;;14.40;77.20;;;;;;5018497;28;20118;-68
2022/08/07 01:56:16;;;;;;;2.45;1.42;;;14.30;77.30;;;;;;5019280;28;20088;-69
2022/08/07 01:58:48;;;;;;;3.33;1.20;;;14.30;78.30;;;;;;5027011;28;20079;-68
2022/08/07 02:01:19;;;;;;;2.17;1.08;;;14.30;78.20;;;;;;5016030;28;20060;-68
2022/08/07 02:03:48;;;;;;;4.20;1.40;;;14.40;77.90;;;;;;5033042;28;20049;-68
2022/08/07 02:06:15;;;;;;;2.45;1.13;;;14.30;77.70;;;;;;5037148;28;20436;-68
2022/08/07 02:08:40;;;;;;;3.75;1.60;;;14.40;77.90;;;;;;5028011;28;20720;-69
2022/08/07 02:11:07;;;;;;;2.63;1.60;;;14.40;77.20;;;;;;5032023;28;20056;-70
2022/08/07 02:13:33;;;;;;;3.30;1.60;;;14.50;76.70;;;;;;5031837;28;20045;-70
2022/08/07 02:15:59;;;;;;;3.65;2.03;;;14.50;76.10;;;;;;5033381;28;20048;-69
2022/08/07 02:18:26;;;;;;;4.00;1.65;;;14.50;76.40;;;;;;5035117;28;20124;-69
2022/08/07 02:20:52;;;;;;;3.03;1.73;;;14.40;77.10;;;;;;5030833;28;20417;-70
2022/08/07 02:23:18;;;;;;;3.45;1.70;;;14.30;76.70;;;;;;4991955;28;20046;-69
2022/08/07 02:25:44;;;;;;;2.58;1.58;;;14.30;77.40;;;;;;5009604;28;20044;-69
2022/08/07 02:28:10;;;;;;;3.95;1.92;;;14.30;77.00;;;;;;5017206;28;20147;-69
2022/08/07 02:30:35;;;;;;;3.33;1.83;;;14.30;76.60;;;;;;5032707;28;20052;-69
2022/08/07 02:33:01;;;;;;;3.03;1.77;;;14.30;76.60;;;;;;5034269;28;20055;-70
2022/08/07 02:35:27;;;;;;;4.53;2.28;;;14.30;76.80;;;;;;5017167;28;20040;-69
2022/08/07 02:37:53;;;;;;;5.78;2.30;;;14.20;76.40;;;;;;5031518;28;20106;-69
2022/08/07 02:40:19;;;;;;;4.30;2.17;;;14.20;77.00;;;;;;5005489;28;20088;-71
2022/08/07 02:42:45;;;;;;;5.57;1.58;;;14.10;77.30;;;;;;5020081;28;20140;-69
2022/08/07 02:45:12;;;;;;;5.57;1.67;;;14.00;77.70;;;;;;5001391;28;20056;-69
2022/08/07 02:47:38;;;;;;;3.72;1.50;;;14.00;78.00;;;;;;5025396;28;20101;-70
2022/08/07 02:50:04;;;;;;;2.80;1.55;;;13.90;78.30;;;;;;5010222;28;20057;-69
2022/08/07 02:52:50;;;;;;;2.85;1.50;;;13.90;78.00;;;;;;5010399;28;20053;-69
2022/08/07 02:55:18;;;;;;;3.17;1.55;;;13.80;78.80;;;;;;5025122;28;20052;-70
2022/08/07 02:57:44;;;;;;;3.47;1.55;;;13.90;79.00;;;;;;5028129;28;20080;-69
2022/08/07 03:00:11;;;;;;;3.08;1.50;;;14.00;78.20;;;;;;5052109;28;20057;-69
2022/08/07 03:02:38;;;;;;;1.98;1.40;;;14.00;77.70;;;;;;4991909;28;20755;-69
2022/08/07 03:05:05;;;;;;;3.40;1.30;;;14.00;78.10;;;;;;4991999;28;20481;-69
2022/08/07 03:07:30;;;;;;;3.20;1.30;;;13.90;77.90;;;;;;5030232;28;20757;-69
2022/08/07 03:09:56;;;;;;;2.58;1.52;;;13.60;78.70;;;;;;5015526;28;20052;-69
2022/08/07 03:12:22;;;;;;;4.72;1.65;;;13.60;79.10;;;;;;5004074;28;20053;-69
2022/08/07 03:14:48;;;;;;;3.33;1.42;;;13.50;78.90;;;;;;5001740;28;20077;-69
2022/08/07 03:17:14;;;;;;;4.80;1.30;;;13.60;78.40;;;;;;4997526;28;20050;-70
2022/08/07 03:19:40;;;;;;;2.88;1.23;;;13.50;79.30;;;;;;5018861;28;20059;-69
2022/08/07 03:22:05;;;;;;;2.38;1.40;;;13.50;79.00;;;;;;5011482;28;20065;-69
2022/08/07 03:24:32;;;;;;;3.72;1.65;;;13.60;78.30;;;;;;5032221;28;20049;-69
2022/08/07 03:26:59;;;;;;;3.17;1.20;;;13.60;78.00;;;;;;5019846;28;20044;-69
2022/08/07 03:29:49;;;;;;;3.67;1.20;;;13.60;77.60;;;;;;5035533;28;20115;-70
2022/08/07 03:32:15;;;;;;;4.35;1.52;;;13.60;78.10;;;;;;5038909;28;20052;-69
2022/08/07 03:34:45;;;;;;;3.53;1.80;;;13.40;78.40;;;;;;5014281;28;20041;-69
2022/08/07 03:37:11;;;;;;;2.45;1.35;;;13.40;78.40;;;;;;5017992;28;20543;-69
2022/08/07 03:39:37;;;;;;;3.17;1.20;;;13.50;77.90;;;;;;5037365;28;20075;-70
2022/08/07 03:42:03;;;;;;;1.95;1.10;;;13.40;78.00;;;;;;5014725;28;20042;-68
2022/08/07 03:44:30;;;;;;;3.78;1.30;;;13.50;78.10;;;;;;5035334;28;20556;-68
2022/08/07 03:46:55;;;;;;;5.30;1.10;;;13.40;78.10;;;;;;5006692;28;20061;-69
2022/08/07 03:49:21;;;;;;;2.78;1.27;;;13.40;78.80;;;;;;5009821;28;20094;-68
2022/08/07 03:51:47;;;;;;;4.07;1.33;;;13.40;78.30;;;;;;5005997;28;20388;-68
2022/08/07 03:54:12;;;;;;;4.05;1.35;;;13.30;78.80;;;;;;5009482;28;20056;-67
2022/08/07 03:56:38;;;;;;;2.03;1.30;;;13.20;79.10;;;;;;5032786;28;20049;-68
2022/08/07 03:59:05;;;;;;;3.80;1.30;;;13.20;79.20;;;;;;5010973;28;20092;-68
2022/08/07 04:01:31;;;;;;;3.95;1.30;;;13.20;79.10;;;;;;5013875;28;20045;-69
2022/08/07 04:03:56;;;;;;;3.83;1.58;;;13.20;78.50;;;;;;4997916;28;20037;-68
2022/08/07 04:06:23;;;;;;;5.70;1.23;;;13.30;78.50;;;;;;5019158;28;20041;-68
2022/08/07 04:08:49;;;;;;;2.17;1.40;;;13.40;78.40;;;;;;5018910;28;20119;-69
2022/08/07 04:11:14;;;;;;;2.63;1.40;;;13.30;78.30;;;;;;5002684;28;20054;-69
2022/08/07 04:13:40;;;;;;;2.78;1.40;;;13.30;78.70;;;;;;5016819;28;20052;-69
2022/08/07 04:16:06;;;;;;;2.55;1.20;;;13.30;78.20;;;;;;5001173;28;20045;-69
2022/08/07 04:18:32;;;;;;;5.63;1.42;;;13.20;78.40;;;;;;5009443;28;20051;-69
2022/08/07 04:20:58;;;;;;;1.90;1.38;;;13.20;78.70;;;;;;5021235;28;20048;-69
2022/08/07 04:23:24;;;;;;;1.67;1.17;;;13.20;78.70;;;;;;5024556;28;20143;-69
2022/08/07 04:25:50;;;;;;;2.25;1.10;;;13.20;79.10;;;;;;5005816;28;20087;-69
2022/08/07 04:28:16;;;;;;;3.22;1.60;;;13.20;79.10;;;;;;5024059;28;20160;-69
2022/08/07 04:30:41;;;;;;;2.65;1.30;;;13.30;78.60;;;;;;5011115;28;20150;-68
2022/08/07 04:33:08;;;;;;;3.58;1.48;;;13.20;78.90;;;;;;5028291;28;20041;-68
2022/08/07 04:35:38;;;;;;;3.28;1.30;;;13.10;79.40;;;;;;5030863;28;20065;-68
2022/08/07 04:38:07;;;;;;;2.65;1.42;;;13.20;79.60;;;;;;5033813;28;20041;-69
2022/08/07 04:40:42;;;;;;;3.85;1.67;;;13.20;79.50;;;;;;5034167;28;20040;-71
2022/08/07 04:43:08;;;;;;;4.10;1.60;;;13.30;79.30;;;;;;5028500;28;20501;-69
2022/08/07 04:46:00;;;;;;;4.05;1.30;;;13.30;78.50;;;;;;5015673;28;20048;-68
2022/08/07 04:48:33;;;;;;;2.60;1.50;;;13.30;79.00;;;;;;5015152;28;20382;-68
2022/08/07 04:51:01;;;;;;;3.80;1.40;;;13.30;79.00;;;;;;5015708;28;20037;-69
2022/08/07 04:53:38;;;;;;;2.50;1.40;;;13.30;79.50;;;;;;5002064;28;20072;-69
2022/08/07 04:56:06;;;;;;;5.10;1.58;;;13.20;79.50;;;;;;5021705;28;20326;-68
2022/08/07 04:59:04;;;;;;;2.90;1.80;;;13.20;79.10;;;;;;5019972;28;20071;-70
2022/08/07 05:01:36;;;;;;;3.72;1.55;;;13.30;79.40;;;;;;5028562;28;20053;-70
2022/08/07 05:04:14;;;;;;;3.67;1.52;;;13.30;79.10;;;;;;5011034;28;20073;-70
2022/08/07 05:06:55;;;;;;;2.65;1.42;;;13.30;79.30;;;;;;5014215;28;20053;-70
2022/08/07 05:09:28;;;;;;;4.63;1.85;;;13.20;79.90;;;;;;5015374;28;20533;-68
2022/08/07 05:11:54;;;;;;;5.05;1.73;;;13.20;80.30;;;;;;4991944;28;20434;-68
2022/08/07 05:14:25;;;;;;;3.42;1.50;;;13.30;80.50;;;;;;5016140;28;20141;-68
2022/08/07 05:16:51;;;;;;;2.83;1.73;;;13.40;81.00;;;;;;5014826;28;20064;-68
2022/08/07 05:19:19;;;;;;;3.60;1.60;;;13.40;80.40;;;;;;4997763;28;20147;-68
2022/08/07 05:21:51;;;;;;;4.30;1.90;;;13.50;80.00;;;;;;5016491;28;20049;-69
2022/08/07 05:24:16;;;;;;;2.63;1.75;;;13.60;79.80;;;;;;5012996;28;20288;-69
2022/08/07 05:26:46;;;;;;;2.75;1.60;;;13.50;80.20;;;;;;5014512;28;20054;-71
2022/08/07 05:29:12;;;;;;;4.88;1.70;;;13.60;79.60;;;;;;5010773;28;20622;-70
2022/08/07 05:31:39;;;;;;;3.90;1.73;;;13.60;79.80;;;;;;5009240;28;20077;-69
2022/08/07 05:34:06;;;;;;;5.03;1.80;;;13.60;79.80;;;;;;4992315;28;20064;-69
2022/08/07 05:36:32;;;;;;;5.53;2.65;;;13.60;79.90;;;;;;5011878;28;20042;-68
2022/08/07 05:38:58;;;;;;;2.45;1.50;;;13.60;79.90;;;;;;5018104;28;20511;-69
2022/08/07 05:41:24;;;;;;;3.25;1.70;;;13.70;79.70;;;;;;5008334;28;20125;-69
2022/08/07 05:43:52;;;;;;;4.35;2.20;;;13.80;79.60;;;;;;5017462;28;20060;-69
2022/08/07 05:46:18;;;;;;;5.28;2.00;;;13.80;79.30;;;;;;5034591;28;20139;-69
2022/08/07 05:48:44;;;;;;;5.10;2.35;;;13.90;79.30;;;;;;5007743;28;20061;-69
2022/08/07 05:51:10;;;;;;;4.90;2.03;;;13.90;79.80;;;;;;5010426;28;20050;-69
2022/08/07 05:53:36;;;;;;;7.78;2.47;;;13.90;80.40;;;;;;5008252;28;20050;-69
2022/08/07 05:56:01;;;;;;;3.70;2.40;;;14.00;80.30;;;;;;5010742;28;20239;-69
2022/08/07 05:58:27;;;;;;;4.22;2.65;;;14.00;80.30;;;;;;5008769;28;20060;-70
2022/08/07 06:00:53;;;;;;;3.67;2.50;;;14.00;80.50;;;;;;4991112;28;20198;-69
2022/08/07 06:03:19;;;;;;;4.68;2.38;;;14.10;80.40;;;;;;4993747;28;20551;-71
2022/08/07 06:05:46;;;;;;;4.38;2.72;;;14.10;80.10;;;;;;5026983;28;20059;-70
2022/08/07 06:08:12;;;;;;;5.53;3.17;;;14.20;80.10;;;;;;4997372;28;20038;-70
2022/08/07 06:10:38;;;;;;;4.65;2.78;;;14.30;80.20;;;;;;5044313;28;20348;-70
2022/08/07 06:13:04;;;;;;;4.55;3.22;;;14.30;79.80;;;;;;5010446;28;20108;-70
2022/08/07 06:15:33;;;;;;;5.03;3.05;;;14.40;79.90;;;;;;4994457;28;20095;-70
2022/08/07 06:17:59;;;;;;;5.03;2.80;;;14.50;79.30;;;;;;4996073;28;20041;-70
2022/08/07 06:20:25;;;;;;;8.05;3.47;;;14.60;79.10;;;;;;4994430;28;20161;-70
2022/08/07 06:22:51;;;;;;;6.85;3.35;;;14.60;79.50;;;;;;5001779;28;20066;-70
2022/08/07 06:25:17;;;;;;;6.93;3.78;;;14.60;79.10;;;;;;5010531;28;20070;-70
2022/08/07 06:27:43;;;;;;;5.78;3.15;;;14.80;78.80;;;;;;4997831;28;20467;-69
2022/08/07 06:30:09;;;;;;;7.82;3.95;;;14.80;78.10;;;;;;5008182;28;20068;-70
2022/08/07 06:32:35;;;;;;;6.82;4.03;;;14.90;77.90;;;;;;5011919;28;20129;-69
2022/08/07 06:35:02;;;;;;;6.90;3.85;;;14.90;77.40;;;;;;5041633;28;20135;-70
2022/08/07 06:37:27;;;;;;;5.93;3.80;;;15.00;77.40;;;;;;5013361;28;20383;-70
2022/08/07 06:39:53;;;;;;;6.03;4.15;;;15.00;77.00;;;;;;5007574;28;20053;-70
2022/08/07 06:42:36;;;;;;;5.18;3.75;;;15.10;77.20;;;;;;5015211;28;20054;-70
2022/08/07 06:45:02;;;;;;;6.82;3.90;;;15.20;77.30;;;;;;5010884;28;20058;-70
2022/08/07 06:47:28;;;;;;;8.00;4.10;;;15.20;76.50;;;;;;5007857;28;20112;-70
2022/08/07 06:49:54;;;;;;;6.40;3.97;;;15.30;76.80;;;;;;4995512;28;20057;-70
2022/08/07 06:52:19;;;;;;;8.68;4.38;;;15.40;77.00;;;;;;5000994;28;20151;-70
2022/08/07 06:54:45;;;;;;;4.82;3.72;;;15.50;76.60;;;;;;5017735;28;20116;-70
2022/08/07 06:57:12;;;;;;;7.35;4.47;;;15.50;76.00;;;;;;5036622;28;20530;-70
2022/08/07 06:59:41;;;;;;;6.72;3.85;;;15.60;76.10;;;;;;5023976;28;20483;-70
2022/08/07 07:02:10;;;;;;;6.47;3.72;;;15.70;75.90;;;;;;4996858;28;20049;-70
2022/08/07 07:04:36;;;;;;;8.80;4.28;;;15.70;75.70;;;;;;5011784;28;20080;-69
2022/08/07 07:07:05;;;;;;;7.28;4.10;;;15.80;75.50;;;;;;5003980;28;20045;-70
2022/08/07 07:09:31;;;;;;;6.80;4.30;;;15.80;75.30;;;;;;5020202;28;20079;-70
2022/08/07 07:12:06;;;;;;;6.07;4.18;;;15.90;75.20;;;;;;5010938;28;20476;-70
2022/08/07 07:14:48;;;;;;;8.73;4.43;;;16.00;74.40;;;;;;4994114;28;20045;-70
2022/08/07 07:17:31;;;;;;;9.07;4.85;;;16.10;73.30;;;;;;5012862;28;20128;-69
2022/08/07 07:19:57;;;;;;;7.75;4.85;;;16.10;73.60;;;;;;4994078;28;20128;-70
2022/08/07 07:22:22;;;;;;;6.97;4.32;;;16.20;73.50;;;;;;5014315;28;20155;-69
2022/08/07 07:24:48;;;;;;;7.47;4.25;;;16.30;72.80;;;;;;4977852;28;20811;-69
2022/08/07 07:27:14;;;;;;;7.43;4.60;;;16.40;72.40;;;;;;5018611;28;20049;-70
2022/08/07 07:29:48;;;;;;;7.72;4.70;;;16.40;71.80;;;;;;4981299;28;20073;-69
2022/08/07 07:32:14;;;;;;;8.93;4.95;;;16.50;71.60;;;;;;5046274;28;20041;-69
2022/08/07 07:34:45;;;;;;;9.25;4.85;;;16.50;71.40;;;;;;5016087;28;20042;-69
2022/08/07 07:37:11;;;;;;;9.25;4.95;;;16.60;71.40;;;;;;5012190;28;20119;-70
2022/08/07 07:39:37;;;;;;;8.98;4.53;;;16.60;70.50;;;;;;5012348;28;20119;-69
2022/08/07 07:42:03;;;;;;;7.30;4.30;;;16.70;70.40;;;;;;4993805;28;20468;-69
2022/08/07 07:44:29;;;;;;;8.30;4.30;;;16.80;70.80;;;;;;5010158;28;20050;-69
2022/08/07 07:46:55;;;;;;;6.20;3.80;;;16.90;70.80;;;;;;5009921;28;20054;-69
2022/08/07 07:49:21;;;;;;;6.50;4.10;;;16.90;70.30;;;;;;5000125;28;20057;-69
2022/08/07 07:51:47;;;;;;;6.47;4.20;;;17.00;69.80;;;;;;5011557;28;20049;-69
2022/08/07 07:54:13;;;;;;;6.65;3.72;;;17.10;69.80;;;;;;5011243;28;20080;-70
2022/08/07 07:56:39;;;;;;;5.75;3.63;;;17.20;70.10;;;;;;4993577;28;20050;-69
2022/08/07 07:59:05;;;;;;;6.97;3.78;;;17.20;69.30;;;;;;5016544;28;20061;-69
2022/08/07 08:01:31;;;;;;;5.32;3.42;;;17.30;68.50;;;;;;5010971;28;20042;-70
2022/08/07 08:03:59;;;;;;;9.75;3.33;;;17.40;68.00;;;;;;4993057;28;20052;-69
2022/08/07 08:06:25;;;;;;;5.63;3.37;;;17.40;67.00;;;;;;5014685;28;20053;-69
2022/08/07 08:08:51;;;;;;;8.23;2.65;;;17.50;66.60;;;;;;5011813;28;20077;-69
2022/08/07 08:11:16;;;;;;;5.50;3.17;;;17.60;65.10;;;;;;4994105;28;20092;-69
2022/08/07 08:13:45;;;;;;;5.75;3.10;;;17.60;65.80;;;;;;5015907;28;20119;-70
2022/08/07 08:16:16;;;;;;;6.10;3.13;;;17.70;66.40;;;;;;5039503;28;20057;-70
2022/08/07 08:18:42;;;;;;;9.20;3.03;;;17.70;65.80;;;;;;5014533;28;20388;-71
2022/08/07 08:27:03;;;;;;;8.73;4.05;;;17.80;66.50;;;;;;4993939;28;20054;-70
2022/08/07 08:29:22;;;;;;;4.03;2.58;;;18.00;65.70;;;;;;5012564;28;20058;-68
2022/08/07 08:31:48;;;;;;;4.10;2.67;;;18.00;64.90;;;;;;5008721;28;20042;-69
2022/08/07 08:34:14;;;;;;;6.68;2.80;;;18.10;64.50;;;;;;4992434;28;20088;-70
2022/08/07 08:36:40;;;;;;;5.07;2.45;;;18.20;64.60;;;;;;5008941;28;20049;-69
2022/08/07 08:39:06;;;;;;;5.68;2.58;;;18.30;64.30;;;;;;5009691;28;20057;-69
2022/08/07 08:41:48;;;;;;;4.60;2.40;;;18.30;63.00;;;;;;5009502;28;20045;-70
2022/08/07 08:44:16;;;;;;;6.72;2.75;;;18.40;64.30;;;;;;5014554;28;20136;-70
2022/08/07 08:46:52;;;;;;;4.80;2.03;;;18.50;64.00;;;;;;5024925;28;20515;-69
2022/08/07 08:49:39;;;;;;;7.32;2.20;;;18.60;61.80;;;;;;4993322;28;20307;-70
2022/08/07 08:52:26;;;;;;;4.47;1.85;;;18.60;61.00;;;;;;5009684;28;20046;-70
2022/08/07 08:54:57;;;;;;;5.53;1.90;;;18.70;60.80;;;;;;5052768;28;20747;-71
2022/08/07 08:57:34;;;;;;;4.95;1.83;;;18.80;60.90;;;;;;5019576;28;20140;-71
2022/08/07 09:00:07;;;;;;;3.88;1.92;;;18.90;60.00;;;;;;5022426;28;20053;-71
2022/08/07 09:02:39;;;;;;;4.55;1.50;;;19.00;59.10;;;;;;5024514;28;20056;-71
2022/08/07 09:05:33;;;;;;;2.47;1.55;;;19.00;59.70;;;;;;5021297;28;20049;-71
2022/08/07 09:08:32;;;;;;;6.22;1.85;;;19.10;59.40;;;;;;5023018;28;20486;-69
2022/08/07 09:11:18;;;;;;;3.92;1.30;;;19.20;58.10;;;;;;5022800;28;20040;-70
2022/08/07 09:14:11;;;;;;;3.13;1.15;;;19.20;56.80;;;;;;5017260;28;20539;-70
2022/08/07 09:16:46;;;;;;;2.95;1.10;;;19.30;56.40;;;;;;5019998;28;20056;-68
2022/08/07 09:19:46;;;;;;;2.70;1.10;;;19.30;56.10;;;;;;5021405;28;20046;-68
2022/08/07 09:22:24;;;;;;;4.20;1.10;;;19.40;55.90;;;;;;5034584;28;20398;-68
2022/08/07 09:25:15;;;;;;;2.72;1.02;;;19.40;55.20;;;;;;5020320;28;20081;-63
2022/08/07 09:27:54;;;;;;;3.42;1.00;;;19.40;53.90;;;;;;5019854;28;20053;-70
2022/08/07 09:30:24;;;;;;;4.18;1.15;;;19.40;52.60;;;;;;5033772;28;20069;-70
2022/08/07 09:33:27;;;;;;;4.63;0.90;;;19.50;54.00;;;;;;5009811;28;20050;-69
2022/08/07 09:36:02;;;;;;;1.20;0.68;;;19.60;53.40;;;;;;5002473;28;20128;-63
2022/08/07 09:38:43;;;;;;;2.10;1.10;;;19.70;52.20;;;;;;4997384;28;20115;-70
2022/08/07 09:41:32;;;;;;;1.75;0.70;;;19.90;54.30;;;;;;5015167;28;20487;-72
2022/08/07 09:44:31;;;;;;;3.72;1.02;;;19.90;52.50;;;;;;5010637;28;20044;-71
2022/08/07 09:47:31;;;;;;;2.15;0.90;;;20.00;51.40;;;;;;5012283;28;20057;-63
2022/08/07 09:50:35;;;;;;;2.67;0.90;;;20.00;52.10;;;;;;5008525;28;20077;-63
2022/08/07 09:53:03;;;;;;;3.55;0.90;;;20.20;52.30;;;;;;4975190;28;20045;-64
2022/08/07 09:55:50;;;;;;;1.90;0.73;;;20.30;52.00;;;;;;4992824;28;20119;-65
2022/08/07 09:58:39;;;;;;;4.78;1.20;;;20.30;52.20;;;;;;5009105;28;20077;-64
2022/08/07 10:01:33;;;;;;;2.22;0.77;;;20.40;50.50;;;;;;5038011;28;20163;-64
2022/08/07 10:04:33;;;;;;;1.63;0.70;;;20.50;51.10;;;;;;5053183;28;20068;-64
2022/08/07 10:07:30;;;;;;;2.97;0.70;;;20.60;48.10;;;;;;5013537;28;20139;-66
2022/08/07 10:10:02;;;;;;;2.78;0.75;;;20.50;47.40;;;;;;4994486;28;20495;-64
2022/08/07 10:12:40;;;;;;;1.45;0.70;;;20.50;48.50;;;;;;4991651;28;20053;-64
2022/08/07 10:15:06;;;;;;;;;;;20.60;48.90;;;;;;5021611;28;20116;-64
2022/08/07 10:17:53;;;;;;;3.72;0.60;;;20.80;49.90;;;;;;5052039;28;20012;-64
2022/08/07 10:20:38;;;;;;;1.85;0.73;;;21.00;48.00;;;;;;5020900;28;20056;-64
2022/08/07 10:23:22;;;;;;;4.03;0.80;;;21.20;50.60;;;;;;5011175;28;20152;-64
2022/08/07 10:25:57;;;;;;;3.35;1.10;;;21.40;49.70;;;;;;5023778;28;20076;-64
2022/08/07 10:28:32;;;;;;;2.53;0.82;;;21.60;48.90;;;;;;5018435;28;20061;-65
2022/08/07 10:31:39;;;;;;;1.50;0.75;;;21.70;46.60;;;;;;5045111;28;20084;-66
2022/08/07 10:34:24;;;;;;;1.63;0.75;;;21.50;47.70;;;;;;5002147;28;20038;-64
2022/08/07 10:36:59;;;;;;;1.70;0.60;;;21.50;48.20;;;;;;5019026;28;20135;-63
2022/08/07 10:39:46;;;;;;;4.25;0.90;;;21.40;46.10;;;;;;4998986;28;20448;-63
2022/08/07 10:42:40;;;;;;;2.63;0.70;;;21.50;48.20;;;;;;5025876;28;20056;-65
2022/08/07 10:45:32;;;;;;;3.45;0.60;;;21.60;47.70;;;;;;5015396;28;20427;-65
2022/08/07 10:48:30;;;;;;;1.30;0.77;;;21.90;47.70;;;;;;5011554;28;20045;-66
2022/08/07 10:51:00;;;;;;;2.08;0.80;;;22.20;49.10;;;;;;5009852;28;20053;-66
2022/08/07 10:54:17;;;;;;;2.38;0.98;;;22.30;44.70;;;;;;5002557;28;20428;-66
2022/08/07 10:57:10;;;;;;;2.28;0.65;;;22.40;44.70;;;;;;4999611;28;20471;-64
2022/08/07 10:59:51;;;;;;;1.80;0.70;;;22.50;43.60;;;;;;5042240;28;20609;-64
2022/08/07 11:02:36;;;;;;;2.38;0.93;;;22.50;42.60;;;;;;5010523;28;20216;-64
2022/08/07 11:05:04;;;;;;;2.42;0.82;;;22.60;43.80;;;;;;5017976;28;20418;-67
2022/08/07 11:07:39;;;;;;;2.75;0.60;;;22.70;42.40;;;;;;5011650;28;20053;-64
2022/08/07 11:10:11;;;;;;;2.17;0.60;;;22.80;42.40;;;;;;4994954;28;20053;-66
2022/08/07 11:12:46;;;;;;;1.77;0.80;;;23.00;42.10;;;;;;5040946;28;20041;-63
2022/08/07 11:15:15;;;;;;;1.25;0.65;;;23.10;43.30;;;;;;5016480;28;20053;-64
2022/08/07 11:17:53;;;;;;;1.77;0.75;;;23.20;43.00;;;;;;5026226;28;20138;-65
2022/08/07 11:20:30;;;;;;;2.15;0.85;;;23.30;43.20;;;;;;5011597;28;20768;-64
2022/08/07 11:23:02;;;;;;;2.75;0.90;;;23.50;41.80;;;;;;5044919;28;20107;-64
2022/08/07 11:25:33;;;;;;;1.88;0.80;;;23.40;42.10;;;;;;5011316;28;20054;-64
2022/08/07 11:28:23;;;;;;;1.55;0.73;;;23.60;41.50;;;;;;5022793;28;20050;-67
2022/08/07 11:31:11;;;;;;;2.60;0.70;;;23.70;42.60;;;;;;5013632;28;20227;-65
2022/08/07 11:34:05;;;;;;;1.77;0.60;;;23.70;40.20;;;;;;4993157;28;20077;-64
2022/08/07 11:36:42;;;;;;;2.13;0.90;;;23.70;41.10;;;;;;5002985;28;20049;-63
2022/08/07 11:39:33;;;;;;;2.40;0.70;;;23.80;42.40;;;;;;5013133;28;20573;-63
2022/08/07 11:42:20;;;;;;;3.92;0.90;;;23.80;40.40;;;;;;5016215;28;20107;-64
2022/08/07 11:44:54;;;;;;;4.25;0.70;;;23.80;38.20;;;;;;5007697;28;20054;-68
2022/08/07 11:47:36;;;;;;;3.13;0.82;;;23.70;39.40;;;;;;4999725;28;20049;-68
2022/08/07 11:50:14;;;;;;;2.53;0.70;;;23.80;39.80;;;;;;5011140;28;20049;-69
2022/08/07 11:52:49;;;;;;;1.92;0.90;;;23.90;40.50;;;;;;5018911;28;20045;-68
2022/08/07 11:55:24;;;;;;;1.65;0.70;;;24.00;40.30;;;;;;5019010;28;20438;-68
2022/08/07 11:57:54;;;;;;;1.00;0.70;;;24.10;39.30;;;;;;5019776;28;20132;-69
2022/08/07 12:00:49;;;;;;;8.45;0.80;;;24.00;38.60;;;;;;4995292;28;20045;-70
2022/08/07 12:03:35;;;;;;;1.92;0.70;;;24.10;39.20;;;;;;5005579;28;20050;-69
2022/08/07 12:06:23;;;;;;;1.27;0.60;;;24.10;39.30;;;;;;5011819;28;20053;-69
2022/08/07 12:09:05;;;;;;;2.97;0.70;;;24.20;39.10;;;;;;5013575;28;20369;-68
2022/08/07 12:11:34;;;;;;;0.95;0.60;;;24.30;38.20;;;;;;5009450;28;20050;-68
2022/08/07 12:14:23;;;;;;;2.83;0.80;;;24.40;39.60;;;;;;5015024;28;20045;-68
2022/08/07 12:17:00;;;;;;;1.58;0.80;;;24.60;38.60;;;;;;4996635;28;20122;-68
2022/08/07 12:19:54;;;;;;;4.88;0.80;;;24.80;39.90;;;;;;5011057;28;20045;-68
2022/08/07 12:22:42;;;;;;;4.25;0.90;;;24.90;40.20;;;;;;5009021;28;20491;-69
2022/08/07 12:28:54;;;;;;;2.97;1.00;;;25.30;39.70;;;;;;5044937;28;20057;-68
2022/08/07 12:31:44;;;;;;;1.90;0.93;;;25.40;41.20;;;;;;5026835;28;20064;-68
2022/08/07 12:34:10;;;;;;;6.30;1.05;;;25.60;39.80;;;;;;5015373;28;20133;-68
2022/08/07 12:36:36;;;;;;;4.32;0.80;;;25.60;39.20;;;;;;5009008;28;20132;-69
2022/08/07 12:39:03;;;;;;;3.13;0.85;;;25.30;37.10;;;;;;5003389;28;20041;-71
2022/08/07 12:41:29;;;;;;;1.97;0.77;;;25.30;37.70;;;;;;4992177;28;20041;-70
2022/08/07 12:43:55;;;;;;;1.90;0.77;;;25.10;36.90;;;;;;4976539;28;20526;-70
2022/08/07 12:46:40;;;;;;;1.70;0.73;;;25.20;37.70;;;;;;4995903;28;20134;-70
2022/08/07 12:49:27;;;;;;;3.28;1.30;;;25.30;38.10;;;;;;5026456;28;20632;-69
2022/08/07 12:52:11;;;;;;;5.43;0.82;;;25.60;38.40;;;;;;5019531;28;20045;-70
2022/08/07 12:54:46;;;;;;;2.95;1.02;;;25.70;36.00;;;;;;4993188;28;20038;-71
2022/08/07 12:57:11;;;;;;;2.70;0.90;;;25.30;35.90;;;;;;5008863;28;20042;-70
2022/08/07 12:59:37;;;;;;;2.17;0.68;;;25.30;36.90;;;;;;5026447;28;20435;-70
2022/08/07 13:02:28;;;;;;;1.85;0.70;;;25.60;37.70;;;;;;4993104;28;20057;-70
2022/08/07 13:05:08;;;;;;;2.13;0.80;;;25.70;36.40;;;;;;5037154;28;20095;-68
2022/08/07 13:07:46;;;;;;;1.25;0.82;;;25.20;36.20;;;;;;5010088;28;20053;-71
2022/08/07 13:10:21;;;;;;;3.63;0.75;;;24.80;36.60;;;;;;5009274;28;20146;-71
2022/08/07 13:12:53;;;;;;;1.90;0.80;;;24.60;37.00;;;;;;5009024;28;20045;-70
2022/08/07 13:15:22;;;;;;;1.95;0.80;;;24.90;38.00;;;;;;5008621;28;20049;-72
2022/08/07 13:18:01;;;;;;;0.95;0.52;;;24.90;37.70;;;;;;5009147;28;20041;-70
2022/08/07 13:20:32;;;;;;;2.38;0.70;;;24.90;38.50;;;;;;5037049;28;20140;-70
2022/08/07 13:23:37;;;;;;;3.63;0.70;;;24.90;38.70;;;;;;5007897;28;20655;-70